createdAt,value
2019-03-20T00:00:49.155Z,4.65
2019-03-20T00:03:23.551Z,5.35
2019-03-20T00:05:57.130Z,4.50
2019-03-20T00:08:30.849Z,4.85
2019-03-20T00:11:04.577Z,6.90
2019-03-20T00:13:38.163Z,4.30
2019-03-20T00:16:11.891Z,3.75
2019-03-20T00:18:45.506Z,5.37
2019-03-20T00:21:19.142Z,5.05
2019-03-20T00:23:52.920Z,4.32
2019-03-20T00:26:27.748Z,4.93
2019-03-20T00:29:02.267Z,5.20
2019-03-20T00:31:35.802Z,4.40
2019-03-20T00:34:10.204Z,5.72
2019-03-20T00:36:43.892Z,5.70
2019-03-20T00:39:17.484Z,6.10
2019-03-20T00:41:51.265Z,5.05
2019-03-20T00:44:25.094Z,5.25
2019-03-20T00:46:58.809Z,5.32
2019-03-20T00:49:33.174Z,4.55
2019-03-20T00:52:06.989Z,5.03
2019-03-20T00:54:40.687Z,5.12
2019-03-20T00:57:14.365Z,5.18
2019-03-20T00:59:47.981Z,5.53
2019-03-20T01:02:21.736Z,6.12
2019-03-20T01:04:56.104Z,5.50
2019-03-20T01:07:29.885Z,6.30
2019-03-20T01:10:03.590Z,6.32
2019-03-20T01:12:37.344Z,6.53
2019-03-20T01:15:11.846Z,7.25
2019-03-20T01:17:45.471Z,6.32
2019-03-20T01:20:19.202Z,5.97
2019-03-20T01:22:52.749Z,6.37
2019-03-20T01:25:26.340Z,6.12
2019-03-20T01:28:00.106Z,7.37
2019-03-20T01:30:36.846Z,6.32
2019-03-20T01:33:11.494Z,5.97
2019-03-20T01:35:45.204Z,5.72
2019-03-20T01:38:18.969Z,6.00
2019-03-20T01:40:52.554Z,6.32
2019-03-20T01:43:26.265Z,5.00
2019-03-20T01:45:59.850Z,6.78
2019-03-20T01:48:33.575Z,5.90
2019-03-20T01:51:23.036Z,7.37
2019-03-20T01:53:56.736Z,7.12
2019-03-20T01:56:30.391Z,4.90
2019-03-20T01:59:04.755Z,5.70
2019-03-20T02:01:39.184Z,5.05
2019-03-20T02:04:12.765Z,6.75
2019-03-20T02:06:47.142Z,5.95
2019-03-20T02:09:20.854Z,6.05
2019-03-20T02:11:54.632Z,7.15
2019-03-20T02:14:28.993Z,6.18
2019-03-20T02:17:02.614Z,4.95
2019-03-20T02:19:37.117Z,5.55
2019-03-20T02:22:11.578Z,5.22
2019-03-20T02:24:45.393Z,4.80
2019-03-20T02:27:20.079Z,5.12
2019-03-20T02:29:53.836Z,7.15
2019-03-20T02:32:27.412Z,4.93
2019-03-20T02:35:01.127Z,5.62
2019-03-20T02:37:34.804Z,5.20
2019-03-20T02:40:08.577Z,5.15
2019-03-20T02:42:42.350Z,5.97
2019-03-20T02:45:15.925Z,5.68
2019-03-20T02:47:49.757Z,4.90
2019-03-20T02:50:23.433Z,5.95
2019-03-20T02:52:57.758Z,5.50
2019-03-20T02:55:31.400Z,5.28
2019-03-20T02:58:05.259Z,5.85
2019-03-20T03:00:39.814Z,5.70
2019-03-20T03:03:13.533Z,4.93
2019-03-20T03:05:47.355Z,6.35
2019-03-20T03:08:21.122Z,5.65
2019-03-20T03:10:55.793Z,5.93
2019-03-20T03:13:29.128Z,5.12
2019-03-20T03:16:02.760Z,5.10
2019-03-20T03:18:36.447Z,5.85
2019-03-20T03:21:10.029Z,4.97
2019-03-20T03:23:43.632Z,5.70
2019-03-20T03:26:17.472Z,4.70
2019-03-20T03:28:51.235Z,5.60
2019-03-20T03:31:24.940Z,5.85
2019-03-20T03:33:58.314Z,5.47
2019-03-20T03:36:31.865Z,4.80
2019-03-20T03:39:06.390Z,5.80
2019-03-20T03:41:40.061Z,5.55
2019-03-20T03:44:13.655Z,5.12
2019-03-20T03:46:47.313Z,4.97
2019-03-20T03:49:20.847Z,5.15
2019-03-20T03:51:54.416Z,5.50
2019-03-20T03:54:28.157Z,4.97
2019-03-20T03:57:01.764Z,5.10
2019-03-20T03:59:35.495Z,5.20
2019-03-20T04:02:09.824Z,5.05
2019-03-20T04:04:43.550Z,4.50
2019-03-20T04:07:17.239Z,6.18
2019-03-20T04:09:50.930Z,4.85
2019-03-20T04:12:24.477Z,7.10
2019-03-20T04:14:58.150Z,4.62
2019-03-20T04:17:31.837Z,4.90
2019-03-20T04:20:08.291Z,5.60
2019-03-20T04:22:41.982Z,6.07
2019-03-20T04:25:15.778Z,5.00
2019-03-20T04:27:49.407Z,5.60
2019-03-20T04:30:23.104Z,5.45
2019-03-20T04:32:56.836Z,4.60
2019-03-20T04:35:30.474Z,7.65
2019-03-20T04:38:04.070Z,5.75
2019-03-20T04:40:37.617Z,5.65
2019-03-20T04:43:11.952Z,6.25
2019-03-20T04:45:46.409Z,5.70
2019-03-20T04:48:20.000Z,5.28
2019-03-20T04:50:53.758Z,4.95
2019-03-20T04:53:27.459Z,5.93
2019-03-20T04:56:01.269Z,5.75
2019-03-20T04:58:34.864Z,5.50
2019-03-20T05:01:08.714Z,8.18
2019-03-20T05:03:42.475Z,6.62
2019-03-20T05:06:16.234Z,6.45
2019-03-20T05:08:50.725Z,6.82
2019-03-20T05:11:24.513Z,5.85
2019-03-20T05:13:58.098Z,6.70
2019-03-20T05:16:31.708Z,6.10
2019-03-20T05:19:05.215Z,7.55
2019-03-20T05:21:38.983Z,5.80
2019-03-20T05:24:12.497Z,6.18
2019-03-20T05:26:46.117Z,6.80
2019-03-20T05:29:19.720Z,4.80
2019-03-20T05:31:53.415Z,6.50
2019-03-20T05:34:27.104Z,6.32
2019-03-20T05:37:09.960Z,5.87
2019-03-20T05:39:34.766Z,5.75
2019-03-20T05:42:08.478Z,7.22
2019-03-20T05:44:42.243Z,8.07
2019-03-20T05:47:16.545Z,5.62
2019-03-20T05:49:51.027Z,6.55
2019-03-20T05:52:24.618Z,5.65
2019-03-20T05:54:59.296Z,6.45
2019-03-20T05:57:33.148Z,6.55
2019-03-20T06:00:07.657Z,6.75
2019-03-20T06:02:41.507Z,6.95
2019-03-20T06:05:15.063Z,7.62
2019-03-20T06:07:48.839Z,4.45
2019-03-20T06:10:22.504Z,6.45
2019-03-20T06:12:56.317Z,6.62
2019-03-20T06:15:30.126Z,6.53
2019-03-20T06:18:03.965Z,6.18
2019-03-20T06:20:37.767Z,6.40
2019-03-20T06:23:11.571Z,8.00
2019-03-20T06:25:45.274Z,7.72
2019-03-20T06:28:18.910Z,6.25
2019-03-20T06:30:52.492Z,5.97
2019-03-20T06:33:26.317Z,7.87
2019-03-20T06:36:00.107Z,6.70
2019-03-20T06:38:33.867Z,7.53
2019-03-20T06:41:08.386Z,7.30
2019-03-20T06:43:42.717Z,8.77
2019-03-20T06:46:17.267Z,7.28
2019-03-20T06:48:51.141Z,6.65
2019-03-20T06:51:24.902Z,8.63
2019-03-20T06:53:58.528Z,8.15
2019-03-20T06:56:32.218Z,8.60
2019-03-20T06:59:17.880Z,8.23
2019-03-20T07:01:52.397Z,8.60
2019-03-20T07:04:42.060Z,7.80
2019-03-20T07:07:20.498Z,8.05
2019-03-20T07:10:11.913Z,9.15
2019-03-20T07:12:45.458Z,7.30
2019-03-20T07:15:19.352Z,8.15
2019-03-20T07:17:52.904Z,7.90
2019-03-20T07:20:26.665Z,9.73
2019-03-20T07:23:00.531Z,6.70
2019-03-20T07:25:34.258Z,8.10
2019-03-20T07:28:07.947Z,7.20
2019-03-20T07:30:41.618Z,8.57
2019-03-20T07:33:15.186Z,7.82
2019-03-20T07:35:48.904Z,8.05
2019-03-20T07:38:23.502Z,9.20
2019-03-20T07:40:57.303Z,9.35
2019-03-20T07:43:31.146Z,8.30
2019-03-20T07:46:04.948Z,8.90
2019-03-20T07:48:40.663Z,7.43
2019-03-20T07:51:12.323Z,9.85
2019-03-20T07:53:46.013Z,8.55
2019-03-20T07:56:19.723Z,8.50
2019-03-20T07:58:53.349Z,8.40
2019-03-20T08:01:27.140Z,7.72
2019-03-20T08:04:00.721Z,8.93
2019-03-20T08:06:34.480Z,9.63
2019-03-20T08:09:08.228Z,8.45
2019-03-20T08:11:42.062Z,8.75
2019-03-20T08:14:15.671Z,8.40
2019-03-20T08:16:49.253Z,9.93
2019-03-20T08:19:22.812Z,8.60
2019-03-20T08:21:56.571Z,8.55
2019-03-20T08:24:30.250Z,7.28
2019-03-20T08:27:04.621Z,9.50
2019-03-20T08:29:38.378Z,8.63
2019-03-20T08:32:12.021Z,8.02
2019-03-20T08:34:45.856Z,8.90
2019-03-20T08:37:19.655Z,8.43
2019-03-20T08:39:53.501Z,7.75
2019-03-20T08:42:27.210Z,7.90
2019-03-20T08:45:00.941Z,7.68
2019-03-20T08:47:34.510Z,7.40
2019-03-20T08:50:12.925Z,7.80
2019-03-20T08:52:46.594Z,7.78
2019-03-20T08:55:20.957Z,6.15
2019-03-20T08:57:54.712Z,7.12
2019-03-20T09:00:28.432Z,6.68
2019-03-20T09:03:02.295Z,5.57
2019-03-20T09:05:36.646Z,5.28
2019-03-20T09:08:10.343Z,5.37
2019-03-20T09:10:44.107Z,5.37
2019-03-20T09:13:17.830Z,4.97
2019-03-20T09:15:51.634Z,5.07
2019-03-20T09:18:25.289Z,5.53
2019-03-20T09:20:59.061Z,4.85
2019-03-20T09:23:32.844Z,3.80
2019-03-20T09:26:07.366Z,4.45
2019-03-20T09:28:41.005Z,3.28
2019-03-20T09:31:14.535Z,2.95
2019-03-20T09:33:48.168Z,2.40
2019-03-20T09:36:21.911Z,2.67
2019-03-20T09:38:55.754Z,3.85
2019-03-20T09:41:29.326Z,3.92
2019-03-20T09:44:03.127Z,2.75
2019-03-20T09:46:37.457Z,3.35
2019-03-20T09:49:11.061Z,4.12
2019-03-20T09:51:44.690Z,4.40
2019-03-20T09:54:18.296Z,4.85
2019-03-20T09:56:51.995Z,4.28
2019-03-20T09:59:26.359Z,4.35
2019-03-20T10:02:00.130Z,3.15
2019-03-20T10:04:33.948Z,2.65
2019-03-20T10:07:07.585Z,2.40
2019-03-20T10:09:41.368Z,2.92
2019-03-20T10:12:14.979Z,3.10
2019-03-20T10:14:48.431Z,2.92
2019-03-20T10:17:21.943Z,2.60
2019-03-20T10:19:55.616Z,3.53
2019-03-20T10:22:30.092Z,3.95
2019-03-20T10:25:03.806Z,3.50
2019-03-20T10:27:38.479Z,4.47
2019-03-20T10:30:17.099Z,3.35
2019-03-20T10:32:50.681Z,3.92
2019-03-20T10:35:24.321Z,4.97
2019-03-20T10:37:58.821Z,3.78
2019-03-20T10:40:32.513Z,4.15
2019-03-20T10:43:06.855Z,3.65
2019-03-20T10:45:41.245Z,3.65
2019-03-20T10:48:15.684Z,4.20
2019-03-20T10:50:49.457Z,3.67
2019-03-20T10:53:23.361Z,3.80
2019-03-20T10:55:57.121Z,4.20
2019-03-20T10:58:30.961Z,3.00
2019-03-20T11:01:04.716Z,3.92
2019-03-20T11:03:39.352Z,2.00
2019-03-20T11:06:13.809Z,1.80
2019-03-20T11:08:47.550Z,1.87
2019-03-20T11:11:27.120Z,1.90
2019-03-20T11:13:55.883Z,2.67
2019-03-20T11:16:29.611Z,2.05
2019-03-20T11:19:03.336Z,2.20
2019-03-20T11:21:36.939Z,5.95
2019-03-20T11:24:10.531Z,1.60
2019-03-20T11:26:44.105Z,1.90
2019-03-20T11:29:21.433Z,1.80
2019-03-20T11:31:51.411Z,1.75
2019-03-20T11:34:25.228Z,1.87
2019-03-20T11:36:58.963Z,1.30
2019-03-20T11:39:32.705Z,2.20
2019-03-20T11:42:07.159Z,1.90
2019-03-20T11:44:40.864Z,1.58
2019-03-20T11:47:14.674Z,2.37
2019-03-20T11:49:48.398Z,1.40
2019-03-20T11:52:22.251Z,2.30
2019-03-20T11:54:56.067Z,2.55
2019-03-20T11:57:29.887Z,2.58
2019-03-20T12:00:03.554Z,1.98
2019-03-20T12:02:37.174Z,1.62
2019-03-20T12:05:10.899Z,1.77
2019-03-20T12:07:44.534Z,1.80
2019-03-20T12:10:21.623Z,2.10
2019-03-20T12:12:55.157Z,2.28
2019-03-20T12:15:28.800Z,2.30
2019-03-20T12:18:03.134Z,1.73
2019-03-20T12:20:36.935Z,2.80
2019-03-20T12:23:10.536Z,3.72
2019-03-20T12:25:45.026Z,3.15
2019-03-20T12:28:18.689Z,2.50
2019-03-20T12:30:53.133Z,2.50
2019-03-20T12:33:26.772Z,2.85
2019-03-20T12:36:00.618Z,2.97
2019-03-20T12:38:34.545Z,3.55
2019-03-20T12:41:08.244Z,3.10
2019-03-20T12:43:45.251Z,2.75
2019-03-20T12:46:16.535Z,2.72
2019-03-20T12:48:50.216Z,2.20
2019-03-20T12:51:24.049Z,2.00
2019-03-20T12:53:57.813Z,2.72
2019-03-20T12:56:32.336Z,1.95
2019-03-20T12:59:06.170Z,3.10
2019-03-20T13:01:40.027Z,1.50
2019-03-20T13:04:13.767Z,2.10
2019-03-20T13:06:48.203Z,2.25
2019-03-20T13:09:21.790Z,1.95
2019-03-20T13:11:55.379Z,3.65
2019-03-20T13:14:29.208Z,2.15
2019-03-20T13:17:03.954Z,3.45
2019-03-20T13:19:38.566Z,1.92
2019-03-20T13:22:12.865Z,2.08
2019-03-20T13:24:47.378Z,1.62
2019-03-20T13:27:21.190Z,1.90
2019-03-20T13:29:54.924Z,1.90
2019-03-20T13:32:28.727Z,2.05
2019-03-20T13:35:02.438Z,2.37
2019-03-20T13:37:36.189Z,1.80
2019-03-20T13:40:14.280Z,2.08
2019-03-20T13:42:43.646Z,2.62
2019-03-20T13:45:21.209Z,1.90
2019-03-20T13:47:54.926Z,1.50
2019-03-20T13:50:28.653Z,1.92
2019-03-20T13:53:02.350Z,1.62
2019-03-20T13:55:36.213Z,2.33
2019-03-20T13:58:10.012Z,2.05
2019-03-20T14:00:43.650Z,1.87
2019-03-20T14:03:18.421Z,1.98
2019-03-20T14:05:52.710Z,2.70
2019-03-20T14:08:26.635Z,1.65
2019-03-20T14:11:00.393Z,2.00
2019-03-20T14:13:34.109Z,3.03
2019-03-20T14:16:07.861Z,2.25
2019-03-20T14:18:42.384Z,2.28
2019-03-20T14:21:16.136Z,3.17
2019-03-20T14:23:50.058Z,2.60
2019-03-20T14:26:23.927Z,2.67
2019-03-20T14:28:57.674Z,1.95
2019-03-20T14:31:31.235Z,1.60
2019-03-20T14:34:04.821Z,2.20
2019-03-20T14:36:38.552Z,2.55
2019-03-20T14:39:13.299Z,1.70
2019-03-20T14:41:47.176Z,1.73
2019-03-20T14:44:20.829Z,1.87
2019-03-20T14:46:55.422Z,1.80
2019-03-20T14:49:29.160Z,2.72
2019-03-20T14:52:02.926Z,1.87
2019-03-20T14:54:37.435Z,1.95
2019-03-20T14:57:11.106Z,1.50
2019-03-20T14:59:45.379Z,1.45
2019-03-20T15:02:19.746Z,2.22
2019-03-20T15:04:54.284Z,1.35
2019-03-20T15:07:27.937Z,2.00
2019-03-20T15:10:02.391Z,2.17
2019-03-20T15:12:38.692Z,2.08
2019-03-20T15:15:15.082Z,2.15
2019-03-20T15:17:48.904Z,1.77
2019-03-20T15:20:22.520Z,1.95
2019-03-20T15:22:56.210Z,1.42
2019-03-20T15:25:29.875Z,1.60
2019-03-20T15:28:04.328Z,1.40
2019-03-20T15:30:38.092Z,1.25
2019-03-20T15:33:12.424Z,1.73
2019-03-20T15:35:47.463Z,1.40
2019-03-20T15:38:21.118Z,1.83
2019-03-20T15:40:56.337Z,2.80
2019-03-20T15:43:28.577Z,1.67
2019-03-20T15:46:02.426Z,3.53
2019-03-20T15:48:36.919Z,3.00
2019-03-20T15:51:10.620Z,2.47
2019-03-20T15:53:44.191Z,2.50
2019-03-20T15:56:17.785Z,2.15
2019-03-20T15:58:51.747Z,2.60
2019-03-20T16:01:25.469Z,2.90
2019-03-20T16:03:59.135Z,2.80
2019-03-20T16:06:32.764Z,3.17
2019-03-20T16:09:06.424Z,2.17
2019-03-20T16:11:40.005Z,2.60
2019-03-20T16:14:13.691Z,2.33
2019-03-20T16:16:47.534Z,2.60
2019-03-20T16:19:21.229Z,2.40
2019-03-20T16:21:54.959Z,2.87
2019-03-20T16:24:28.665Z,2.92
2019-03-20T16:27:02.379Z,2.30
2019-03-20T16:29:36.336Z,1.80
2019-03-20T16:32:09.989Z,8.45
2019-03-20T16:34:43.675Z,2.40
2019-03-20T16:37:17.384Z,2.67
2019-03-20T16:39:51.257Z,2.00
2019-03-20T16:42:25.788Z,1.85
2019-03-20T16:44:59.573Z,2.33
2019-03-20T16:47:33.311Z,2.80
2019-03-20T16:50:07.751Z,2.50
2019-03-20T16:52:41.596Z,2.10
2019-03-20T16:55:15.365Z,2.00
2019-03-20T16:57:49.026Z,2.10
2019-03-20T17:00:25.466Z,3.00
2019-03-20T17:02:59.235Z,2.53
2019-03-20T17:05:34.247Z,4.12
2019-03-20T17:08:08.698Z,2.97
2019-03-20T17:10:43.269Z,3.97
2019-03-20T17:13:17.673Z,2.45
2019-03-20T17:15:52.712Z,3.05
2019-03-20T17:18:27.406Z,2.33
2019-03-20T17:21:01.216Z,3.05
2019-03-20T17:23:34.914Z,3.22
2019-03-20T17:26:08.964Z,2.55
2019-03-20T17:28:42.633Z,2.87
2019-03-20T17:31:16.342Z,3.95
2019-03-20T17:33:50.194Z,2.65
2019-03-20T17:36:24.626Z,2.40
2019-03-20T17:38:58.360Z,2.60
2019-03-20T17:41:36.579Z,2.70
2019-03-20T17:44:05.681Z,2.75
2019-03-20T17:46:40.144Z,2.40
2019-03-20T17:49:13.728Z,2.92
2019-03-20T17:51:47.523Z,2.95
2019-03-20T17:54:21.288Z,3.42
2019-03-20T17:56:54.944Z,3.15
2019-03-20T17:59:28.762Z,3.03
2019-03-20T18:02:02.544Z,3.90
2019-03-20T18:04:36.919Z,3.50
2019-03-20T18:07:10.729Z,4.18
2019-03-20T18:09:44.324Z,4.43
2019-03-20T18:12:18.005Z,3.60
2019-03-20T18:14:51.747Z,4.20
2019-03-20T18:17:25.323Z,3.72
2019-03-20T18:19:59.060Z,4.07
2019-03-20T18:22:33.550Z,3.30
2019-03-20T18:25:07.169Z,3.62
2019-03-20T18:27:40.772Z,3.50
2019-03-20T18:30:23.252Z,2.20
2019-03-20T18:32:56.949Z,3.00
2019-03-20T18:35:30.699Z,2.72
2019-03-20T18:38:05.293Z,2.90
2019-03-20T18:40:39.098Z,2.92
2019-03-20T18:43:12.830Z,4.07
2019-03-20T18:45:46.526Z,4.32
2019-03-20T18:48:20.217Z,3.40
2019-03-20T18:50:53.940Z,4.30
2019-03-20T18:53:28.435Z,3.85
2019-03-20T18:56:02.697Z,3.90
2019-03-20T18:58:36.246Z,4.90
2019-03-20T19:01:10.143Z,6.40
2019-03-20T19:03:44.277Z,6.65
2019-03-20T19:06:21.590Z,4.43
2019-03-20T19:08:55.277Z,3.85
2019-03-20T19:11:29.005Z,4.60
2019-03-20T19:14:03.583Z,4.53
2019-03-20T19:16:38.067Z,4.20
2019-03-20T19:19:12.457Z,6.12
2019-03-20T19:21:46.052Z,4.82
2019-03-20T19:24:19.786Z,3.75
2019-03-20T19:26:53.654Z,4.50
2019-03-20T19:29:27.420Z,3.92
2019-03-20T19:32:01.238Z,4.15
2019-03-20T19:34:34.875Z,4.40
2019-03-20T19:37:09.306Z,4.75
2019-03-20T19:39:43.056Z,5.97
2019-03-20T19:42:20.171Z,5.82
2019-03-20T19:44:50.574Z,4.32
2019-03-20T19:47:24.275Z,4.75
2019-03-20T19:49:57.775Z,4.47
2019-03-20T19:52:31.553Z,4.35
2019-03-20T19:55:06.245Z,3.58
2019-03-20T19:57:39.829Z,3.53
2019-03-20T20:00:16.856Z,3.78
2019-03-20T20:02:50.439Z,3.08
2019-03-20T20:05:24.256Z,3.58
2019-03-20T20:07:57.924Z,3.37
2019-03-20T20:10:31.710Z,4.18
2019-03-20T20:13:05.279Z,3.60
2019-03-20T20:15:38.857Z,4.22
2019-03-20T20:18:12.793Z,3.40
2019-03-20T20:20:46.289Z,3.10
2019-03-20T20:23:20.907Z,3.10
2019-03-20T20:25:54.512Z,2.95
2019-03-20T20:28:28.919Z,3.60
2019-03-20T20:31:02.669Z,3.67
2019-03-20T20:33:38.194Z,3.45
2019-03-20T20:36:09.964Z,3.20
2019-03-20T20:38:43.607Z,3.90
2019-03-20T20:41:17.212Z,4.00
2019-03-20T20:43:50.886Z,3.97
2019-03-20T20:46:24.448Z,4.18
2019-03-20T20:48:58.279Z,3.83
2019-03-20T20:51:31.973Z,4.55
2019-03-20T20:54:05.765Z,4.68
2019-03-20T20:56:39.398Z,4.50
2019-03-20T20:59:13.100Z,6.57
2019-03-20T21:01:47.526Z,6.25
2019-03-20T21:04:21.098Z,5.82
2019-03-20T21:06:54.822Z,5.00
2019-03-20T21:09:28.378Z,6.12
2019-03-20T21:12:01.950Z,5.05
2019-03-20T21:14:36.287Z,6.10
2019-03-20T21:17:10.575Z,5.53
2019-03-20T21:19:44.328Z,5.90
2019-03-20T21:35:58.230Z,5.53
2019-03-20T21:38:31.903Z,4.85
2019-03-20T21:47:32.007Z,6.30
2019-03-20T21:50:24.463Z,4.30
2019-03-20T21:52:58.249Z,5.25
2019-03-20T21:55:43.893Z,4.15
2019-03-20T21:58:19.019Z,4.20
2019-03-20T22:01:19.636Z,3.80
2019-03-20T22:03:53.234Z,3.45
2019-03-20T22:06:43.802Z,3.83
2019-03-20T22:09:18.220Z,3.40
2019-03-20T22:12:12.702Z,3.08
2019-03-20T22:14:48.269Z,3.35
2019-03-20T22:17:50.782Z,2.95
2019-03-20T22:20:26.908Z,3.10
2019-03-20T22:23:06.602Z,3.50
2019-03-20T22:25:48.049Z,3.15
2019-03-20T22:28:46.236Z,2.70
2019-03-20T22:31:19.835Z,3.35
2019-03-20T22:34:06.197Z,3.40
2019-03-20T22:36:39.785Z,3.70
2019-03-20T22:39:35.843Z,3.05
2019-03-20T22:42:13.095Z,3.28
2019-03-20T22:44:49.555Z,3.10
2019-03-20T22:50:43.749Z,3.90
2019-03-20T22:53:23.179Z,3.28
2019-03-20T22:58:52.604Z,3.53
2019-03-20T23:01:28.535Z,2.90
2019-03-20T23:04:07.392Z,3.40
2019-03-20T23:06:41.122Z,4.25
2019-03-20T23:09:14.741Z,5.20
2019-03-20T23:11:48.509Z,3.53
2019-03-20T23:14:22.358Z,3.83
2019-03-20T23:16:56.755Z,3.42
2019-03-20T23:19:30.426Z,4.70
2019-03-20T23:22:04.058Z,3.25
2019-03-20T23:24:37.742Z,3.83
2019-03-20T23:27:12.422Z,3.20
2019-03-20T23:29:46.698Z,3.33
2019-03-20T23:32:20.436Z,3.30
2019-03-20T23:34:54.188Z,3.90
2019-03-20T23:37:28.687Z,3.45
2019-03-20T23:40:02.283Z,3.20
2019-03-20T23:42:36.088Z,3.10
2019-03-20T23:45:10.714Z,3.47
2019-03-20T23:47:47.368Z,5.45
2019-03-20T23:50:20.967Z,3.50
2019-03-20T23:52:54.546Z,2.90
2019-03-20T23:55:28.158Z,3.10
2019-03-20T23:58:01.764Z,3.12
